sensor_id;sensor_type;location;lat;lon;timestamp;temperature;humidity
31783;DHT22;18351;47.560;9.708;2024-03-23T00:53:15;10.90;99.90
31783;DHT22;18351;47.560;9.708;2024-03-23T00:55:41;10.90;99.90
31783;DHT22;18351;47.560;9.708;2024-03-23T00:58:07;10.90;99.90
31783;DHT22;18351;47.560;9.708;2024-03-23T01:00:32;10.90;99.90
31783;DHT22;18351;47.560;9.708;2024-03-23T01:02:58;10.90;99.90
31783;DHT22;18351;47.560;9.708;2024-03-23T01:05:24;10.90;99.90
31783;DHT22;18351;47.560;9.708;2024-03-23T01:07:49;10.80;99.90
31783;DHT22;18351;47.560;9.708;2024-03-23T01:10:15;10.70;99.90
31783;DHT22;18351;47.560;9.708;2024-03-23T01:12:41;10.70;99.90
31783;DHT22;18351;47.560;9.708;2024-03-23T01:15:06;10.70;99.90
31783;DHT22;18351;47.560;9.708;2024-03-23T01:17:32;10.70;99.90
31783;DHT22;18351;47.560;9.708;2024-03-23T01:19:57;10.70;99.90
31783;DHT22;18351;47.560;9.708;2024-03-23T01:22:23;10.80;99.90
31783;DHT22;18351;47.560;9.708;2024-03-23T01:24:49;10.80;99.90
31783;DHT22;18351;47.560;9.708;2024-03-23T01:27:14;10.80;99.90
31783;DHT22;18351;47.560;9.708;2024-03-23T01:29:40;10.90;99.90
31783;DHT22;18351;47.560;9.708;2024-03-23T01:32:06;10.80;99.90
31783;DHT22;18351;47.560;9.708;2024-03-23T01:34:32;10.80;99.90
31783;DHT22;18351;47.560;9.708;2024-03-23T01:36:58;10.70;99.90
31783;DHT22;18351;47.560;9.708;2024-03-23T01:39:24;10.70;99.90
31783;DHT22;18351;47.560;9.708;2024-03-23T01:41:49;10.70;99.90
31783;DHT22;18351;47.560;9.708;2024-03-23T01:44:15;10.60;99.90
31783;DHT22;18351;47.560;9.708;2024-03-23T01:46:41;10.60;99.90
31783;DHT22;18351;47.560;9.708;2024-03-23T01:49:07;10.60;99.90
31783;DHT22;18351;47.560;9.708;2024-03-23T01:51:34;10.60;99.90
31783;DHT22;18351;47.560;9.708;2024-03-23T01:54:01;10.50;99.90
31783;DHT22;18351;47.560;9.708;2024-03-23T01:56:32;10.50;99.90
31783;DHT22;18351;47.560;9.708;2024-03-23T01:59:07;10.50;99.90
31783;DHT22;18351;47.560;9.708;2024-03-23T02:01:35;10.50;99.90
31783;DHT22;18351;47.560;9.708;2024-03-23T02:04:04;10.50;99.90
31783;DHT22;18351;47.560;9.708;2024-03-23T02:06:29;10.50;99.90
31783;DHT22;18351;47.560;9.708;2024-03-23T02:08:55;10.50;99.90
31783;DHT22;18351;47.560;9.708;2024-03-23T02:11:21;10.40;99.90
31783;DHT22;18351;47.560;9.708;2024-03-23T02:13:46;10.40;99.90
31783;DHT22;18351;47.560;9.708;2024-03-23T02:16:12;10.40;99.90
31783;DHT22;18351;47.560;9.708;2024-03-23T02:18:38;10.40;99.90
31783;DHT22;18351;47.560;9.708;2024-03-23T02:21:04;10.40;99.90
31783;DHT22;18351;47.560;9.708;2024-03-23T02:23:30;10.40;99.90
31783;DHT22;18351;47.560;9.708;2024-03-23T02:25:55;10.40;99.90
31783;DHT22;18351;47.560;9.708;2024-03-23T02:28:21;10.40;99.90
31783;DHT22;18351;47.560;9.708;2024-03-23T02:30:49;10.40;99.90
31783;DHT22;18351;47.560;9.708;2024-03-23T02:33:14;10.30;99.90
31783;DHT22;18351;47.560;9.708;2024-03-23T02:35:40;10.30;99.90
31783;DHT22;18351;47.560;9.708;2024-03-23T02:38:06;10.30;99.90
31783;DHT22;18351;47.560;9.708;2024-03-23T02:40:31;10.20;99.90
31783;DHT22;18351;47.560;9.708;2024-03-23T02:42:57;10.20;99.90
31783;DHT22;18351;47.560;9.708;2024-03-23T02:45:22;10.20;99.90
31783;DHT22;18351;47.560;9.708;2024-03-23T02:47:48;10.20;99.90
31783;DHT22;18351;47.560;9.708;2024-03-23T02:50:18;10.20;99.90
31783;DHT22;18351;47.560;9.708;2024-03-23T02:52:43;10.10;99.90
31783;DHT22;18351;47.560;9.708;2024-03-23T02:55:09;10.10;99.90
31783;DHT22;18351;47.560;9.708;2024-03-23T02:57:34;10.10;99.90
31783;DHT22;18351;47.560;9.708;2024-03-23T03:00:00;10.10;99.90
31783;DHT22;18351;47.560;9.708;2024-03-23T03:02:26;10.10;99.90
31783;DHT22;18351;47.560;9.708;2024-03-23T03:04:51;10.10;99.90
31783;DHT22;18351;47.560;9.708;2024-03-23T03:07:17;10.10;99.90
31783;DHT22;18351;47.560;9.708;2024-03-23T03:09:42;10.00;99.90
31783;DHT22;18351;47.560;9.708;2024-03-23T03:12:08;10.00;99.90
31783;DHT22;18351;47.560;9.708;2024-03-23T03:14:34;10.10;99.90
31783;DHT22;18351;47.560;9.708;2024-03-23T03:17:00;10.10;99.90
31783;DHT22;18351;47.560;9.708;2024-03-23T03:19:26;10.10;99.90
31783;DHT22;18351;47.560;9.708;2024-03-23T03:21:52;10.10;99.90
31783;DHT22;18351;47.560;9.708;2024-03-23T03:24:18;10.10;99.90
31783;DHT22;18351;47.560;9.708;2024-03-23T03:26:44;10.20;99.90
31783;DHT22;18351;47.560;9.708;2024-03-23T03:29:09;10.30;99.90
31783;DHT22;18351;47.560;9.708;2024-03-23T03:31:35;10.30;99.90
31783;DHT22;18351;47.560;9.708;2024-03-23T03:34:01;10.30;99.90
31783;DHT22;18351;47.560;9.708;2024-03-23T03:36:27;10.30;99.90
31783;DHT22;18351;47.560;9.708;2024-03-23T03:38:53;10.40;99.90
31783;DHT22;18351;47.560;9.708;2024-03-23T03:41:19;10.40;99.90
31783;DHT22;18351;47.560;9.708;2024-03-23T03:43:44;10.40;99.90
31783;DHT22;18351;47.560;9.708;2024-03-23T03:46:10;10.40;99.90
31783;DHT22;18351;47.560;9.708;2024-03-23T03:48:36;10.40;99.80
31783;DHT22;18351;47.560;9.708;2024-03-23T03:51:02;10.40;99.90
31783;DHT22;18351;47.560;9.708;2024-03-23T03:53:28;10.40;99.90
31783;DHT22;18351;47.560;9.708;2024-03-23T03:55:54;10.40;99.90
31783;DHT22;18351;47.560;9.708;2024-03-23T03:58:19;10.50;99.70
31783;DHT22;18351;47.560;9.708;2024-03-23T04:00:45;10.50;99.00
31783;DHT22;18351;47.560;9.708;2024-03-23T04:03:10;10.50;98.70
31783;DHT22;18351;47.560;9.708;2024-03-23T04:05:36;10.50;98.90
31783;DHT22;18351;47.560;9.708;2024-03-23T04:08:01;10.50;98.50
31783;DHT22;18351;47.560;9.708;2024-03-23T04:10:27;10.60;98.50
31783;DHT22;18351;47.560;9.708;2024-03-23T04:12:52;10.60;97.80
31783;DHT22;18351;47.560;9.708;2024-03-23T04:15:19;10.60;97.50
31783;DHT22;18351;47.560;9.708;2024-03-23T04:17:45;10.60;97.70
31783;DHT22;18351;47.560;9.708;2024-03-23T04:20:11;10.60;97.60
31783;DHT22;18351;47.560;9.708;2024-03-23T04:22:39;10.60;97.50
31783;DHT22;18351;47.560;9.708;2024-03-23T04:25:04;10.60;97.40
31783;DHT22;18351;47.560;9.708;2024-03-23T04:27:34;10.60;97.80
31783;DHT22;18351;47.560;9.708;2024-03-23T04:30:00;10.60;97.30
31783;DHT22;18351;47.560;9.708;2024-03-23T04:32:27;10.60;97.00
31783;DHT22;18351;47.560;9.708;2024-03-23T04:34:54;10.60;97.10
31783;DHT22;18351;47.560;9.708;2024-03-23T04:37:20;10.60;97.60
31783;DHT22;18351;47.560;9.708;2024-03-23T04:39:46;10.50;97.00
31783;DHT22;18351;47.560;9.708;2024-03-23T04:42:15;10.40;97.00
31783;DHT22;18351;47.560;9.708;2024-03-23T04:44:41;10.40;97.30
31783;DHT22;18351;47.560;9.708;2024-03-23T04:47:07;10.40;96.80
31783;DHT22;18351;47.560;9.708;2024-03-23T04:49:33;10.40;97.20
31783;DHT22;18351;47.560;9.708;2024-03-23T04:51:58;10.40;96.60
31783;DHT22;18351;47.560;9.708;2024-03-23T04:54:24;10.40;96.90
31783;DHT22;18351;47.560;9.708;2024-03-23T04:56:50;10.40;96.90
31783;DHT22;18351;47.560;9.708;2024-03-23T04:59:15;10.40;96.50
31783;DHT22;18351;47.560;9.708;2024-03-23T05:01:41;10.40;97.10
31783;DHT22;18351;47.560;9.708;2024-03-23T05:04:08;10.40;97.00
31783;DHT22;18351;47.560;9.708;2024-03-23T05:06:33;10.40;96.30
31783;DHT22;18351;47.560;9.708;2024-03-23T05:09:00;10.40;96.20
31783;DHT22;18351;47.560;9.708;2024-03-23T05:11:26;10.40;96.10
31783;DHT22;18351;47.560;9.708;2024-03-23T05:13:52;10.40;96.10
31783;DHT22;18351;47.560;9.708;2024-03-23T05:16:18;10.40;96.00
31783;DHT22;18351;47.560;9.708;2024-03-23T05:18:43;10.40;95.90
31783;DHT22;18351;47.560;9.708;2024-03-23T05:21:09;10.50;95.80
31783;DHT22;18351;47.560;9.708;2024-03-23T05:23:34;10.40;95.60
31783;DHT22;18351;47.560;9.708;2024-03-23T05:26:00;10.40;95.90
31783;DHT22;18351;47.560;9.708;2024-03-23T05:28:26;10.40;95.60
31783;DHT22;18351;47.560;9.708;2024-03-23T05:30:52;10.40;96.00
31783;DHT22;18351;47.560;9.708;2024-03-23T05:33:19;10.40;96.20
31783;DHT22;18351;47.560;9.708;2024-03-23T05:35:45;10.40;96.30
31783;DHT22;18351;47.560;9.708;2024-03-23T05:38:10;10.40;96.20
31783;DHT22;18351;47.560;9.708;2024-03-23T05:40:36;10.40;97.00
31783;DHT22;18351;47.560;9.708;2024-03-23T05:43:03;10.40;96.50
31783;DHT22;18351;47.560;9.708;2024-03-23T05:45:29;10.40;96.70
31783;DHT22;18351;47.560;9.708;2024-03-23T05:47:55;10.40;96.60
31783;DHT22;18351;47.560;9.708;2024-03-23T05:50:22;10.50;96.10
31783;DHT22;18351;47.560;9.708;2024-03-23T05:52:48;10.50;96.60
31783;DHT22;18351;47.560;9.708;2024-03-23T05:55:14;10.50;95.70
31783;DHT22;18351;47.560;9.708;2024-03-23T05:57:40;10.50;95.80
31783;DHT22;18351;47.560;9.708;2024-03-23T06:00:06;10.50;96.00
31783;DHT22;18351;47.560;9.708;2024-03-23T06:02:44;10.50;95.60
31783;DHT22;18351;47.560;9.708;2024-03-23T06:05:11;10.60;95.70
31783;DHT22;18351;47.560;9.708;2024-03-23T06:07:37;10.60;95.20
31783;DHT22;18351;47.560;9.708;2024-03-23T06:10:03;10.60;94.80
31783;DHT22;18351;47.560;9.708;2024-03-23T06:12:29;10.60;95.40
31783;DHT22;18351;47.560;9.708;2024-03-23T06:14:54;10.60;95.40
31783;DHT22;18351;47.560;9.708;2024-03-23T06:17:20;10.60;95.00
31783;DHT22;18351;47.560;9.708;2024-03-23T06:19:46;10.60;94.90
31783;DHT22;18351;47.560;9.708;2024-03-23T06:22:11;10.60;95.30
31783;DHT22;18351;47.560;9.708;2024-03-23T06:24:37;10.70;94.60
31783;DHT22;18351;47.560;9.708;2024-03-23T06:27:03;10.70;95.00
31783;DHT22;18351;47.560;9.708;2024-03-23T06:29:28;10.70;96.10
31783;DHT22;18351;47.560;9.708;2024-03-23T06:31:54;10.70;98.00
31783;DHT22;18351;47.560;9.708;2024-03-23T06:34:20;10.70;98.20
31783;DHT22;18351;47.560;9.708;2024-03-23T06:36:47;10.80;99.70
31783;DHT22;18351;47.560;9.708;2024-03-23T06:39:12;10.80;99.90
31783;DHT22;18351;47.560;9.708;2024-03-23T06:41:44;10.90;99.90
31783;DHT22;18351;47.560;9.708;2024-03-23T06:44:16;11.00;99.90
31783;DHT22;18351;47.560;9.708;2024-03-23T06:46:42;11.20;99.90
31783;DHT22;18351;47.560;9.708;2024-03-23T06:49:07;11.40;99.90
31783;DHT22;18351;47.560;9.708;2024-03-23T06:51:33;11.60;99.90
31783;DHT22;18351;47.560;9.708;2024-03-23T06:53:59;11.60;99.90
31783;DHT22;18351;47.560;9.708;2024-03-23T06:56:24;11.50;99.90
31783;DHT22;18351;47.560;9.708;2024-03-23T06:58:50;11.60;99.90
31783;DHT22;18351;47.560;9.708;2024-03-23T07:01:15;11.40;99.90
31783;DHT22;18351;47.560;9.708;2024-03-23T07:03:41;11.40;99.90
31783;DHT22;18351;47.560;9.708;2024-03-23T07:06:06;11.30;99.90
31783;DHT22;18351;47.560;9.708;2024-03-23T07:08:34;11.10;99.90
31783;DHT22;18351;47.560;9.708;2024-03-23T07:10:59;11.00;99.90
31783;DHT22;18351;47.560;9.708;2024-03-23T07:13:25;10.80;99.90
31783;DHT22;18351;47.560;9.708;2024-03-23T07:15:54;10.70;99.90
31783;DHT22;18351;47.560;9.708;2024-03-23T07:18:21;10.50;99.90
31783;DHT22;18351;47.560;9.708;2024-03-23T07:21:05;10.50;99.90
31783;DHT22;18351;47.560;9.708;2024-03-23T07:23:32;10.40;99.90
31783;DHT22;18351;47.560;9.708;2024-03-23T07:26:02;10.40;99.90
31783;DHT22;18351;47.560;9.708;2024-03-23T07:28:28;10.40;99.90
31783;DHT22;18351;47.560;9.708;2024-03-23T07:31:07;10.30;99.90
31783;DHT22;18351;47.560;9.708;2024-03-23T07:33:39;10.30;99.90
31783;DHT22;18351;47.560;9.708;2024-03-23T07:36:06;10.30;99.90
31783;DHT22;18351;47.560;9.708;2024-03-23T07:38:32;10.20;99.90
31783;DHT22;18351;47.560;9.708;2024-03-23T07:41:10;10.20;99.90
31783;DHT22;18351;47.560;9.708;2024-03-23T07:43:37;10.20;99.90
31783;DHT22;18351;47.560;9.708;2024-03-23T07:46:04;10.20;99.90
31783;DHT22;18351;47.560;9.708;2024-03-23T07:48:30;10.10;99.90
31783;DHT22;18351;47.560;9.708;2024-03-23T07:51:03;10.10;99.90
31783;DHT22;18351;47.560;9.708;2024-03-23T07:53:29;10.10;99.90
31783;DHT22;18351;47.560;9.708;2024-03-23T07:56:03;10.10;99.90
31783;DHT22;18351;47.560;9.708;2024-03-23T07:58:29;10.00;99.90
31783;DHT22;18351;47.560;9.708;2024-03-23T08:00:55;10.00;99.90
31783;DHT22;18351;47.560;9.708;2024-03-23T08:03:22;10.00;99.90
31783;DHT22;18351;47.560;9.708;2024-03-23T08:05:47;10.10;99.90
31783;DHT22;18351;47.560;9.708;2024-03-23T08:08:13;10.10;99.90
31783;DHT22;18351;47.560;9.708;2024-03-23T08:10:52;10.10;99.90
31783;DHT22;18351;47.560;9.708;2024-03-23T08:13:18;10.10;99.90
31783;DHT22;18351;47.560;9.708;2024-03-23T08:15:44;10.20;99.90
31783;DHT22;18351;47.560;9.708;2024-03-23T08:18:11;10.10;99.90
31783;DHT22;18351;47.560;9.708;2024-03-23T08:20:37;10.20;99.90
31783;DHT22;18351;47.560;9.708;2024-03-23T08:23:03;10.10;99.90
31783;DHT22;18351;47.560;9.708;2024-03-23T08:25:31;10.10;99.90
31783;DHT22;18351;47.560;9.708;2024-03-23T08:27:57;10.10;99.90
31783;DHT22;18351;47.560;9.708;2024-03-23T08:30:23;10.20;99.90
31783;DHT22;18351;47.560;9.708;2024-03-23T08:32:48;10.20;99.90
31783;DHT22;18351;47.560;9.708;2024-03-23T08:35:14;10.10;99.90
31783;DHT22;18351;47.560;9.708;2024-03-23T08:37:39;10.10;99.90
31783;DHT22;18351;47.560;9.708;2024-03-23T08:40:05;10.10;99.90
31783;DHT22;18351;47.560;9.708;2024-03-23T08:42:31;10.20;99.90
31783;DHT22;18351;47.560;9.708;2024-03-23T08:44:57;10.20;99.90
31783;DHT22;18351;47.560;9.708;2024-03-23T08:47:22;10.20;99.90
31783;DHT22;18351;47.560;9.708;2024-03-23T08:49:48;10.20;99.90
31783;DHT22;18351;47.560;9.708;2024-03-23T08:52:13;10.20;99.90
31783;DHT22;18351;47.560;9.708;2024-03-23T08:54:39;10.20;99.90
31783;DHT22;18351;47.560;9.708;2024-03-23T08:57:04;10.20;99.90
31783;DHT22;18351;47.560;9.708;2024-03-23T08:59:30;10.20;99.90
31783;DHT22;18351;47.560;9.708;2024-03-23T09:01:56;10.20;99.90
31783;DHT22;18351;47.560;9.708;2024-03-23T09:04:21;10.10;99.90
31783;DHT22;18351;47.560;9.708;2024-03-23T09:06:47;10.10;99.90
31783;DHT22;18351;47.560;9.708;2024-03-23T09:09:12;10.10;99.90
31783;DHT22;18351;47.560;9.708;2024-03-23T09:11:38;9.90;99.90
31783;DHT22;18351;47.560;9.708;2024-03-23T09:14:03;9.70;99.90
31783;DHT22;18351;47.560;9.708;2024-03-23T09:16:29;9.50;99.90
31783;DHT22;18351;47.560;9.708;2024-03-23T09:18:55;9.30;99.90
31783;DHT22;18351;47.560;9.708;2024-03-23T09:21:20;9.10;99.90
31783;DHT22;18351;47.560;9.708;2024-03-23T09:23:46;9.00;99.90
31783;DHT22;18351;47.560;9.708;2024-03-23T09:26:12;8.90;99.90
31783;DHT22;18351;47.560;9.708;2024-03-23T09:28:37;8.90;99.90
31783;DHT22;18351;47.560;9.708;2024-03-23T09:31:04;8.80;99.90
31783;DHT22;18351;47.560;9.708;2024-03-23T09:33:30;8.70;99.90
31783;DHT22;18351;47.560;9.708;2024-03-23T09:35:55;8.70;99.90
31783;DHT22;18351;47.560;9.708;2024-03-23T09:38:25;8.70;99.90
31783;DHT22;18351;47.560;9.708;2024-03-23T09:40:53;8.70;99.90
31783;DHT22;18351;47.560;9.708;2024-03-23T09:43:19;8.70;99.90
31783;DHT22;18351;47.560;9.708;2024-03-23T09:45:45;8.80;99.90
31783;DHT22;18351;47.560;9.708;2024-03-23T09:48:11;8.70;99.90
31783;DHT22;18351;47.560;9.708;2024-03-23T09:50:41;8.80;99.90
31783;DHT22;18351;47.560;9.708;2024-03-23T09:53:08;8.80;99.90
31783;DHT22;18351;47.560;9.708;2024-03-23T09:55:34;8.80;99.90
31783;DHT22;18351;47.560;9.708;2024-03-23T09:58:03;8.70;99.90
31783;DHT22;18351;47.560;9.708;2024-03-23T10:00:33;8.70;99.90
31783;DHT22;18351;47.560;9.708;2024-03-23T10:03:01;8.80;99.90
31783;DHT22;18351;47.560;9.708;2024-03-23T10:05:28;8.80;99.90
31783;DHT22;18351;47.560;9.708;2024-03-23T10:07:54;8.80;99.90
31783;DHT22;18351;47.560;9.708;2024-03-23T10:10:20;8.90;99.90
31783;DHT22;18351;47.560;9.708;2024-03-23T10:12:49;8.90;99.90
31783;DHT22;18351;47.560;9.708;2024-03-23T10:15:19;8.90;99.90
31783;DHT22;18351;47.560;9.708;2024-03-23T10:17:45;8.80;99.90
31783;DHT22;18351;47.560;9.708;2024-03-23T10:20:11;8.80;99.90
31783;DHT22;18351;47.560;9.708;2024-03-23T10:22:38;8.80;99.90
31783;DHT22;18351;47.560;9.708;2024-03-23T10:25:08;8.80;99.90
31783;DHT22;18351;47.560;9.708;2024-03-23T10:27:34;8.80;99.90
31783;DHT22;18351;47.560;9.708;2024-03-23T10:30:09;8.80;99.90
31783;DHT22;18351;47.560;9.708;2024-03-23T10:32:35;8.80;99.90
31783;DHT22;18351;47.560;9.708;2024-03-23T10:35:17;8.80;99.90
31783;DHT22;18351;47.560;9.708;2024-03-23T10:37:50;8.80;99.90
31783;DHT22;18351;47.560;9.708;2024-03-23T10:40:17;8.90;99.90
31783;DHT22;18351;47.560;9.708;2024-03-23T10:42:46;9.00;99.90
31783;DHT22;18351;47.560;9.708;2024-03-23T10:45:12;9.10;99.90
31783;DHT22;18351;47.560;9.708;2024-03-23T10:47:38;9.10;99.90
31783;DHT22;18351;47.560;9.708;2024-03-23T10:50:04;9.10;99.90
31783;DHT22;18351;47.560;9.708;2024-03-23T10:52:33;9.00;99.90
31783;DHT22;18351;47.560;9.708;2024-03-23T10:55:00;9.10;99.90
31783;DHT22;18351;47.560;9.708;2024-03-23T10:57:39;9.00;99.90
31783;DHT22;18351;47.560;9.708;2024-03-23T11:00:06;9.00;99.90
31783;DHT22;18351;47.560;9.708;2024-03-23T11:02:32;8.90;99.90
31783;DHT22;18351;47.560;9.708;2024-03-23T11:04:57;8.90;99.90
31783;DHT22;18351;47.560;9.708;2024-03-23T11:07:30;8.80;99.90
31783;DHT22;18351;47.560;9.708;2024-03-23T11:09:57;8.90;99.90
31783;DHT22;18351;47.560;9.708;2024-03-23T11:14:57;8.90;99.90
31783;DHT22;18351;47.560;9.708;2024-03-23T11:17:25;9.00;99.90
31783;DHT22;18351;47.560;9.708;2024-03-23T11:19:58;9.00;99.90
31783;DHT22;18351;47.560;9.708;2024-03-23T11:22:47;9.10;99.90
31783;DHT22;18351;47.560;9.708;2024-03-23T11:27:38;9.40;99.90
31783;DHT22;18351;47.560;9.708;2024-03-23T11:30:18;9.50;99.90
31783;DHT22;18351;47.560;9.708;2024-03-23T11:32:46;9.50;99.90
31783;DHT22;18351;47.560;9.708;2024-03-23T11:35:31;9.60;99.90
31783;DHT22;18351;47.560;9.708;2024-03-23T11:40:30;9.60;99.90
31783;DHT22;18351;47.560;9.708;2024-03-23T11:42:58;9.60;99.90
31783;DHT22;18351;47.560;9.708;2024-03-23T11:45:24;9.60;99.90
31783;DHT22;18351;47.560;9.708;2024-03-23T11:48:08;9.70;99.90
31783;DHT22;18351;47.560;9.708;2024-03-23T11:50:35;9.70;99.90
31783;DHT22;18351;47.560;9.708;2024-03-23T11:53:08;9.70;99.90
31783;DHT22;18351;47.560;9.708;2024-03-23T11:55:42;9.70;99.90
31783;DHT22;18351;47.560;9.708;2024-03-23T11:58:07;9.80;99.90
31783;DHT22;18351;47.560;9.708;2024-03-23T12:00:34;9.80;99.90
31783;DHT22;18351;47.560;9.708;2024-03-23T12:03:03;9.80;99.90
31783;DHT22;18351;47.560;9.708;2024-03-23T12:05:30;9.80;99.90
31783;DHT22;18351;47.560;9.708;2024-03-23T12:10:51;10.00;99.90
31783;DHT22;18351;47.560;9.708;2024-03-23T12:13:19;10.10;99.90
31783;DHT22;18351;47.560;9.708;2024-03-23T12:15:54;10.20;99.90
31783;DHT22;18351;47.560;9.708;2024-03-23T12:18:23;10.30;99.90
31783;DHT22;18351;47.560;9.708;2024-03-23T12:20:50;10.30;99.90
31783;DHT22;18351;47.560;9.708;2024-03-23T12:23:15;10.40;99.90
31783;DHT22;18351;47.560;9.708;2024-03-23T12:25:41;10.40;99.00
31783;DHT22;18351;47.560;9.708;2024-03-23T12:28:07;10.30;98.90
31783;DHT22;18351;47.560;9.708;2024-03-23T12:30:39;10.30;99.60
31783;DHT22;18351;47.560;9.708;2024-03-23T12:33:05;10.30;99.80
31783;DHT22;18351;47.560;9.708;2024-03-23T12:35:30;10.30;97.60
31783;DHT22;18351;47.560;9.708;2024-03-23T12:37:56;10.40;99.10
31783;DHT22;18351;47.560;9.708;2024-03-23T12:40:22;10.30;99.90
31783;DHT22;18351;47.560;9.708;2024-03-23T12:42:47;10.40;99.90
31783;DHT22;18351;47.560;9.708;2024-03-23T12:45:13;10.40;99.90
31783;DHT22;18351;47.560;9.708;2024-03-23T12:47:39;10.50;99.90
31783;DHT22;18351;47.560;9.708;2024-03-23T12:50:04;10.60;99.90
31783;DHT22;18351;47.560;9.708;2024-03-23T12:52:31;10.70;99.90
31783;DHT22;18351;47.560;9.708;2024-03-23T12:54:57;10.80;99.90
31783;DHT22;18351;47.560;9.708;2024-03-23T12:57:26;10.90;99.90
31783;DHT22;18351;47.560;9.708;2024-03-23T12:59:53;11.00;99.90
31783;DHT22;18351;47.560;9.708;2024-03-23T13:02:21;11.00;99.90
31783;DHT22;18351;47.560;9.708;2024-03-23T13:04:51;11.00;99.90
31783;DHT22;18351;47.560;9.708;2024-03-23T13:07:18;11.00;99.90
31783;DHT22;18351;47.560;9.708;2024-03-23T13:09:44;10.90;99.90
31783;DHT22;18351;47.560;9.708;2024-03-23T13:12:10;10.90;99.90
31783;DHT22;18351;47.560;9.708;2024-03-23T13:14:39;11.00;99.90
31783;DHT22;18351;47.560;9.708;2024-03-23T13:17:06;11.10;99.90
31783;DHT22;18351;47.560;9.708;2024-03-23T13:19:32;11.30;99.90
31783;DHT22;18351;47.560;9.708;2024-03-23T13:21:58;11.50;99.90
31783;DHT22;18351;47.560;9.708;2024-03-23T13:24:27;11.50;99.90
31783;DHT22;18351;47.560;9.708;2024-03-23T13:26:54;11.60;99.90
31783;DHT22;18351;47.560;9.708;2024-03-23T13:29:20;11.40;99.30
31783;DHT22;18351;47.560;9.708;2024-03-23T13:31:46;11.20;99.00
31783;DHT22;18351;47.560;9.708;2024-03-23T13:34:12;11.00;98.30
31783;DHT22;18351;47.560;9.708;2024-03-23T13:36:43;10.70;98.20
31783;DHT22;18351;47.560;9.708;2024-03-23T13:39:09;10.50;99.40
31783;DHT22;18351;47.560;9.708;2024-03-23T13:41:41;10.40;99.90
31783;DHT22;18351;47.560;9.708;2024-03-23T13:44:07;10.40;99.90
31783;DHT22;18351;47.560;9.708;2024-03-23T13:46:33;10.40;98.20
31783;DHT22;18351;47.560;9.708;2024-03-23T13:48:59;10.40;96.80
31783;DHT22;18351;47.560;9.708;2024-03-23T13:51:25;10.40;98.80
31783;DHT22;18351;47.560;9.708;2024-03-23T13:53:54;10.40;97.00
31783;DHT22;18351;47.560;9.708;2024-03-23T13:56:24;10.30;97.80
31783;DHT22;18351;47.560;9.708;2024-03-23T13:58:50;10.30;97.20
31783;DHT22;18351;47.560;9.708;2024-03-23T14:01:16;10.20;97.80
31783;DHT22;18351;47.560;9.708;2024-03-23T14:03:42;10.20;97.50
31783;DHT22;18351;47.560;9.708;2024-03-23T14:06:09;10.00;96.30
31783;DHT22;18351;47.560;9.708;2024-03-23T14:08:35;10.00;97.10
31783;DHT22;18351;47.560;9.708;2024-03-23T14:11:04;9.90;97.20
31783;DHT22;18351;47.560;9.708;2024-03-23T14:13:30;10.00;95.40
31783;DHT22;18351;47.560;9.708;2024-03-23T14:15:56;9.90;93.30
31783;DHT22;18351;47.560;9.708;2024-03-23T14:18:22;9.90;93.40
31783;DHT22;18351;47.560;9.708;2024-03-23T14:20:57;10.00;94.10
31783;DHT22;18351;47.560;9.708;2024-03-23T14:23:27;10.10;94.90
31783;DHT22;18351;47.560;9.708;2024-03-23T14:25:54;10.30;95.00
31783;DHT22;18351;47.560;9.708;2024-03-23T14:28:20;10.50;94.00
31783;DHT22;18351;47.560;9.708;2024-03-23T14:30:47;10.60;92.30
31783;DHT22;18351;47.560;9.708;2024-03-23T14:33:13;10.60;92.60
31783;DHT22;18351;47.560;9.708;2024-03-23T14:35:38;10.60;92.40
31783;DHT22;18351;47.560;9.708;2024-03-23T14:38:05;10.60;92.00
31783;DHT22;18351;47.560;9.708;2024-03-23T14:40:30;10.50;91.70
31783;DHT22;18351;47.560;9.708;2024-03-23T14:42:56;10.50;93.40
31783;DHT22;18351;47.560;9.708;2024-03-23T14:45:22;10.60;91.00
31783;DHT22;18351;47.560;9.708;2024-03-23T14:47:50;10.50;90.50
31783;DHT22;18351;47.560;9.708;2024-03-23T14:50:15;10.30;91.40
31783;DHT22;18351;47.560;9.708;2024-03-23T14:52:50;10.30;92.10
31783;DHT22;18351;47.560;9.708;2024-03-23T14:55:16;10.30;91.80
31783;DHT22;18351;47.560;9.708;2024-03-23T14:57:42;10.30;91.90
31783;DHT22;18351;47.560;9.708;2024-03-23T15:00:09;10.30;91.40
31783;DHT22;18351;47.560;9.708;2024-03-23T15:02:36;10.20;92.50
31783;DHT22;18351;47.560;9.708;2024-03-23T15:05:02;10.30;93.10
31783;DHT22;18351;47.560;9.708;2024-03-23T15:07:32;10.50;92.50
31783;DHT22;18351;47.560;9.708;2024-03-23T15:09:58;10.40;92.30
31783;DHT22;18351;47.560;9.708;2024-03-23T15:12:23;10.50;90.30
31783;DHT22;18351;47.560;9.708;2024-03-23T15:14:49;10.40;88.90
31783;DHT22;18351;47.560;9.708;2024-03-23T15:17:15;10.50;86.70
31783;DHT22;18351;47.560;9.708;2024-03-23T15:19:40;10.50;84.40
31783;DHT22;18351;47.560;9.708;2024-03-23T15:22:08;10.40;82.50
31783;DHT22;18351;47.560;9.708;2024-03-23T15:24:34;10.30;84.50
31783;DHT22;18351;47.560;9.708;2024-03-23T15:27:01;10.40;84.40
31783;DHT22;18351;47.560;9.708;2024-03-23T15:29:26;10.30;85.90
31783;DHT22;18351;47.560;9.708;2024-03-23T15:31:52;10.30;88.60
31783;DHT22;18351;47.560;9.708;2024-03-23T15:34:19;10.40;86.40
31783;DHT22;18351;47.560;9.708;2024-03-23T15:36:47;10.40;87.60
31783;DHT22;18351;47.560;9.708;2024-03-23T15:39:13;10.50;87.10
31783;DHT22;18351;47.560;9.708;2024-03-23T15:41:39;10.50;90.10
31783;DHT22;18351;47.560;9.708;2024-03-23T15:44:05;10.50;89.00
31783;DHT22;18351;47.560;9.708;2024-03-23T15:46:31;10.50;89.50
31783;DHT22;18351;47.560;9.708;2024-03-23T15:48:56;10.50;90.40
31783;DHT22;18351;47.560;9.708;2024-03-23T15:51:22;10.50;90.20
31783;DHT22;18351;47.560;9.708;2024-03-23T15:53:48;10.40;88.10
31783;DHT22;18351;47.560;9.708;2024-03-23T15:56:13;10.30;87.60
31783;DHT22;18351;47.560;9.708;2024-03-23T15:58:39;10.30;90.20
31783;DHT22;18351;47.560;9.708;2024-03-23T16:01:06;10.40;89.40
31783;DHT22;18351;47.560;9.708;2024-03-23T16:03:34;10.40;90.00
31783;DHT22;18351;47.560;9.708;2024-03-23T16:06:02;10.40;89.90
31783;DHT22;18351;47.560;9.708;2024-03-23T16:08:28;10.40;89.40
31783;DHT22;18351;47.560;9.708;2024-03-23T16:10:54;10.20;90.50
31783;DHT22;18351;47.560;9.708;2024-03-23T16:13:20;10.20;91.00
31783;DHT22;18351;47.560;9.708;2024-03-23T16:15:55;10.30;89.60
31783;DHT22;18351;47.560;9.708;2024-03-23T16:18:22;10.30;88.70
31783;DHT22;18351;47.560;9.708;2024-03-23T16:21:02;10.30;89.50
31783;DHT22;18351;47.560;9.708;2024-03-23T16:23:28;10.30;88.30
31783;DHT22;18351;47.560;9.708;2024-03-23T16:25:55;10.20;88.80
31783;DHT22;18351;47.560;9.708;2024-03-23T16:28:28;10.20;85.60
31783;DHT22;18351;47.560;9.708;2024-03-23T16:33:20;10.30;86.40
31783;DHT22;18351;47.560;9.708;2024-03-23T16:36:01;10.30;84.40